sensor_id;sensor_type;location;lat;lon;timestamp;P1;durP1;ratioP1;P2;durP2;ratioP2
10565;SDS011;5331;48.148;16.326;2022-09-16T00:00:53;2.88;;;2.67;;
10565;SDS011;5331;48.148;16.326;2022-09-16T00:03:20;2.80;;;2.60;;
10565;SDS011;5331;48.148;16.326;2022-09-16T00:05:47;3.15;;;2.85;;
10565;SDS011;5331;48.148;16.326;2022-09-16T00:08:16;3.72;;;2.50;;
10565;SDS011;5331;48.148;16.326;2022-09-16T00:10:43;3.63;;;2.95;;
10565;SDS011;5331;48.148;16.326;2022-09-16T00:13:11;3.00;;;2.80;;
10565;SDS011;5331;48.148;16.326;2022-09-16T00:15:40;3.00;;;2.80;;
10565;SDS011;5331;48.148;16.326;2022-09-16T00:18:09;3.22;;;2.97;;
10565;SDS011;5331;48.148;16.326;2022-09-16T00:20:36;3.55;;;3.10;;
10565;SDS011;5331;48.148;16.326;2022-09-16T00:23:08;3.22;;;3.03;;
10565;SDS011;5331;48.148;16.326;2022-09-16T00:25:35;3.25;;;3.03;;
10565;SDS011;5331;48.148;16.326;2022-09-16T00:28:02;5.03;;;3.45;;
10565;SDS011;5331;48.148;16.326;2022-09-16T00:30:29;3.72;;;3.42;;
10565;SDS011;5331;48.148;16.326;2022-09-16T00:32:56;3.30;;;3.00;;
10565;SDS011;5331;48.148;16.326;2022-09-16T00:35:24;3.20;;;3.00;;
10565;SDS011;5331;48.148;16.326;2022-09-16T00:37:51;3.65;;;3.35;;
10565;SDS011;5331;48.148;16.326;2022-09-16T00:40:18;3.70;;;3.40;;
10565;SDS011;5331;48.148;16.326;2022-09-16T00:42:45;5.85;;;3.50;;
10565;SDS011;5331;48.148;16.326;2022-09-16T00:45:13;3.70;;;3.35;;
10565;SDS011;5331;48.148;16.326;2022-09-16T00:47:42;3.60;;;3.40;;
10565;SDS011;5331;48.148;16.326;2022-09-16T00:50:14;4.30;;;3.95;;
10565;SDS011;5331;48.148;16.326;2022-09-16T00:52:47;3.97;;;3.67;;
10565;SDS011;5331;48.148;16.326;2022-09-16T00:55:16;5.35;;;4.32;;
10565;SDS011;5331;48.148;16.326;2022-09-16T00:57:46;4.10;;;3.70;;
10565;SDS011;5331;48.148;16.326;2022-09-16T01:00:15;4.25;;;3.83;;
10565;SDS011;5331;48.148;16.326;2022-09-16T01:02:45;4.78;;;4.00;;
10565;SDS011;5331;48.148;16.326;2022-09-16T01:05:13;3.85;;;3.65;;
10565;SDS011;5331;48.148;16.326;2022-09-16T01:07:43;3.97;;;3.75;;
10565;SDS011;5331;48.148;16.326;2022-09-16T01:10:13;3.88;;;3.58;;
10565;SDS011;5331;48.148;16.326;2022-09-16T01:12:43;3.65;;;3.40;;
10565;SDS011;5331;48.148;16.326;2022-09-16T01:15:13;4.25;;;3.58;;
10565;SDS011;5331;48.148;16.326;2022-09-16T01:23:46;3.70;;;3.40;;
10565;SDS011;5331;48.148;16.326;2022-09-16T01:26:49;3.42;;;3.20;;
10565;SDS011;5331;48.148;16.326;2022-09-16T01:32:34;3.53;;;3.22;;
10565;SDS011;5331;48.148;16.326;2022-09-16T01:35:09;3.97;;;3.38;;
10565;SDS011;5331;48.148;16.326;2022-09-16T01:37:46;3.90;;;3.60;;
10565;SDS011;5331;48.148;16.326;2022-09-16T01:40:23;3.58;;;3.28;;
10565;SDS011;5331;48.148;16.326;2022-09-16T01:42:59;3.60;;;3.30;;
10565;SDS011;5331;48.148;16.326;2022-09-16T01:45:34;3.40;;;3.20;;
10565;SDS011;5331;48.148;16.326;2022-09-16T01:48:12;3.63;;;3.38;;
10565;SDS011;5331;48.148;16.326;2022-09-16T01:50:47;3.55;;;3.33;;
10565;SDS011;5331;48.148;16.326;2022-09-16T01:53:23;4.00;;;3.70;;
10565;SDS011;5331;48.148;16.326;2022-09-16T01:55:56;3.65;;;3.35;;
10565;SDS011;5331;48.148;16.326;2022-09-16T01:58:26;4.45;;;3.67;;
10565;SDS011;5331;48.148;16.326;2022-09-16T02:01:02;5.07;;;3.80;;
10565;SDS011;5331;48.148;16.326;2022-09-16T02:03:35;4.30;;;3.85;;
10565;SDS011;5331;48.148;16.326;2022-09-16T02:06:06;3.83;;;3.42;;
10565;SDS011;5331;48.148;16.326;2022-09-16T02:08:36;5.13;;;3.38;;
10565;SDS011;5331;48.148;16.326;2022-09-16T02:11:07;4.20;;;3.88;;
10565;SDS011;5331;48.148;16.326;2022-09-16T02:13:38;4.70;;;4.20;;
10565;SDS011;5331;48.148;16.326;2022-09-16T02:16:08;4.32;;;3.90;;
10565;SDS011;5331;48.148;16.326;2022-09-16T02:18:41;4.20;;;3.80;;
10565;SDS011;5331;48.148;16.326;2022-09-16T02:21:11;4.05;;;3.58;;
10565;SDS011;5331;48.148;16.326;2022-09-16T02:23:42;4.72;;;4.03;;
10565;SDS011;5331;48.148;16.326;2022-09-16T02:26:14;4.20;;;3.80;;
10565;SDS011;5331;48.148;16.326;2022-09-16T02:28:46;4.40;;;4.03;;
10565;SDS011;5331;48.148;16.326;2022-09-16T02:31:14;6.03;;;4.03;;
10565;SDS011;5331;48.148;16.326;2022-09-16T02:33:46;3.75;;;3.45;;
10565;SDS011;5331;48.148;16.326;2022-09-16T02:36:20;4.20;;;3.70;;
10565;SDS011;5331;48.148;16.326;2022-09-16T02:38:49;3.90;;;3.60;;
10565;SDS011;5331;48.148;16.326;2022-09-16T02:41:19;3.78;;;3.47;;
10565;SDS011;5331;48.148;16.326;2022-09-16T02:43:47;4.13;;;3.72;;
10565;SDS011;5331;48.148;16.326;2022-09-16T02:46:18;4.80;;;3.80;;
10565;SDS011;5331;48.148;16.326;2022-09-16T02:48:53;4.90;;;3.70;;
10565;SDS011;5331;48.148;16.326;2022-09-16T02:51:31;3.65;;;3.35;;
10565;SDS011;5331;48.148;16.326;2022-09-16T02:54:04;4.25;;;3.90;;
10565;SDS011;5331;48.148;16.326;2022-09-16T02:56:37;4.00;;;3.70;;
10565;SDS011;5331;48.148;16.326;2022-09-16T02:59:07;3.83;;;3.53;;
10565;SDS011;5331;48.148;16.326;2022-09-16T03:01:37;4.00;;;3.60;;
10565;SDS011;5331;48.148;16.326;2022-09-16T03:04:08;4.90;;;4.50;;
10565;SDS011;5331;48.148;16.326;2022-09-16T03:06:36;4.68;;;4.28;;
10565;SDS011;5331;48.148;16.326;2022-09-16T03:09:05;4.72;;;4.30;;
10565;SDS011;5331;48.148;16.326;2022-09-16T03:11:38;4.88;;;4.47;;
10565;SDS011;5331;48.148;16.326;2022-09-16T03:14:25;5.32;;;4.82;;
10565;SDS011;5331;48.148;16.326;2022-09-16T03:17:03;4.63;;;4.18;;
10565;SDS011;5331;48.148;16.326;2022-09-16T03:19:45;5.10;;;4.68;;
10565;SDS011;5331;48.148;16.326;2022-09-16T03:22:22;5.45;;;4.93;;
10565;SDS011;5331;48.148;16.326;2022-09-16T03:24:58;5.25;;;4.35;;
10565;SDS011;5331;48.148;16.326;2022-09-16T03:27:33;5.28;;;4.78;;
10565;SDS011;5331;48.148;16.326;2022-09-16T03:30:08;5.75;;;5.13;;
10565;SDS011;5331;48.148;16.326;2022-09-16T03:32:37;6.10;;;5.05;;
10565;SDS011;5331;48.148;16.326;2022-09-16T03:35:11;5.15;;;4.65;;
10565;SDS011;5331;48.148;16.326;2022-09-16T03:37:43;5.13;;;4.63;;
10565;SDS011;5331;48.148;16.326;2022-09-16T03:40:12;4.97;;;4.57;;
10565;SDS011;5331;48.148;16.326;2022-09-16T03:42:43;6.40;;;5.05;;
10565;SDS011;5331;48.148;16.326;2022-09-16T03:45:12;5.15;;;4.57;;
10565;SDS011;5331;48.148;16.326;2022-09-16T03:47:42;6.63;;;5.30;;
10565;SDS011;5331;48.148;16.326;2022-09-16T03:50:11;4.85;;;4.30;;
10565;SDS011;5331;48.148;16.326;2022-09-16T03:52:38;5.15;;;4.65;;
10565;SDS011;5331;48.148;16.326;2022-09-16T03:55:05;5.28;;;4.78;;
10565;SDS011;5331;48.148;16.326;2022-09-16T03:57:34;5.55;;;5.05;;
10565;SDS011;5331;48.148;16.326;2022-09-16T04:00:02;5.82;;;5.32;;
10565;SDS011;5331;48.148;16.326;2022-09-16T04:02:30;5.80;;;5.30;;
10565;SDS011;5331;48.148;16.326;2022-09-16T04:04:57;5.20;;;4.80;;
10565;SDS011;5331;48.148;16.326;2022-09-16T04:07:28;5.80;;;5.28;;
10565;SDS011;5331;48.148;16.326;2022-09-16T04:09:57;4.95;;;4.55;;
10565;SDS011;5331;48.148;16.326;2022-09-16T04:12:24;5.68;;;5.15;;
10565;SDS011;5331;48.148;16.326;2022-09-16T04:14:51;6.10;;;5.13;;
10565;SDS011;5331;48.148;16.326;2022-09-16T04:17:18;6.88;;;4.90;;
10565;SDS011;5331;48.148;16.326;2022-09-16T04:19:47;6.90;;;5.07;;
10565;SDS011;5331;48.148;16.326;2022-09-16T04:22:14;5.22;;;4.60;;
10565;SDS011;5331;48.148;16.326;2022-09-16T04:24:42;6.18;;;5.10;;
10565;SDS011;5331;48.148;16.326;2022-09-16T04:27:09;5.82;;;5.20;;
10565;SDS011;5331;48.148;16.326;2022-09-16T04:29:36;4.90;;;4.40;;
10565;SDS011;5331;48.148;16.326;2022-09-16T04:32:03;5.00;;;4.60;;
10565;SDS011;5331;48.148;16.326;2022-09-16T04:34:30;5.25;;;4.85;;
10565;SDS011;5331;48.148;16.326;2022-09-16T04:36:57;5.15;;;4.65;;
10565;SDS011;5331;48.148;16.326;2022-09-16T04:39:24;4.90;;;4.50;;
10565;SDS011;5331;48.148;16.326;2022-09-16T04:41:53;5.40;;;4.90;;
10565;SDS011;5331;48.148;16.326;2022-09-16T04:44:19;6.53;;;4.95;;
10565;SDS011;5331;48.148;16.326;2022-09-16T04:46:46;5.68;;;4.85;;
10565;SDS011;5331;48.148;16.326;2022-09-16T04:49:13;7.43;;;5.07;;
10565;SDS011;5331;48.148;16.326;2022-09-16T04:51:41;5.25;;;4.75;;
10565;SDS011;5331;48.148;16.326;2022-09-16T04:54:08;5.40;;;4.97;;
10565;SDS011;5331;48.148;16.326;2022-09-16T04:56:35;5.57;;;4.88;;
10565;SDS011;5331;48.148;16.326;2022-09-16T04:59:04;5.13;;;4.72;;
10565;SDS011;5331;48.148;16.326;2022-09-16T05:01:32;8.35;;;4.80;;
10565;SDS011;5331;48.148;16.326;2022-09-16T05:04:01;6.15;;;5.13;;
10565;SDS011;5331;48.148;16.326;2022-09-16T05:06:31;5.07;;;4.60;;
10565;SDS011;5331;48.148;16.326;2022-09-16T05:08:59;5.32;;;4.80;;
10565;SDS011;5331;48.148;16.326;2022-09-16T05:11:27;6.65;;;5.15;;
10565;SDS011;5331;48.148;16.326;2022-09-16T05:13:57;6.05;;;4.88;;
10565;SDS011;5331;48.148;16.326;2022-09-16T05:16:26;5.57;;;5.00;;
10565;SDS011;5331;48.148;16.326;2022-09-16T05:18:54;4.75;;;4.28;;
10565;SDS011;5331;48.148;16.326;2022-09-16T05:21:23;5.68;;;4.57;;
10565;SDS011;5331;48.148;16.326;2022-09-16T05:23:51;5.95;;;5.00;;
10565;SDS011;5331;48.148;16.326;2022-09-16T05:26:21;5.57;;;5.07;;
10565;SDS011;5331;48.148;16.326;2022-09-16T05:28:49;6.43;;;5.25;;
10565;SDS011;5331;48.148;16.326;2022-09-16T05:31:17;5.15;;;4.75;;
10565;SDS011;5331;48.148;16.326;2022-09-16T05:33:46;5.97;;;5.18;;
10565;SDS011;5331;48.148;16.326;2022-09-16T05:36:18;6.28;;;5.05;;
10565;SDS011;5331;48.148;16.326;2022-09-16T05:38:46;5.53;;;4.68;;
10565;SDS011;5331;48.148;16.326;2022-09-16T05:41:14;5.90;;;5.30;;
10565;SDS011;5331;48.148;16.326;2022-09-16T05:43:41;5.47;;;4.95;;
10565;SDS011;5331;48.148;16.326;2022-09-16T05:46:10;4.88;;;4.47;;
10565;SDS011;5331;48.148;16.326;2022-09-16T05:48:44;6.13;;;5.40;;
10565;SDS011;5331;48.148;16.326;2022-09-16T05:51:13;5.65;;;5.15;;
10565;SDS011;5331;48.148;16.326;2022-09-16T05:53:42;5.60;;;5.07;;
10565;SDS011;5331;48.148;16.326;2022-09-16T05:56:11;5.93;;;5.43;;
10565;SDS011;5331;48.148;16.326;2022-09-16T05:58:39;4.90;;;4.50;;
10565;SDS011;5331;48.148;16.326;2022-09-16T06:01:07;6.15;;;5.50;;
10565;SDS011;5331;48.148;16.326;2022-09-16T06:03:35;5.63;;;5.13;;
10565;SDS011;5331;48.148;16.326;2022-09-16T06:06:04;5.82;;;5.22;;
10565;SDS011;5331;48.148;16.326;2022-09-16T06:08:34;5.78;;;5.28;;
10565;SDS011;5331;48.148;16.326;2022-09-16T06:11:02;5.70;;;5.10;;
10565;SDS011;5331;48.148;16.326;2022-09-16T06:13:31;7.43;;;5.28;;
10565;SDS011;5331;48.148;16.326;2022-09-16T06:15:58;4.57;;;4.15;;
10565;SDS011;5331;48.148;16.326;2022-09-16T06:18:27;4.88;;;4.47;;
10565;SDS011;5331;48.148;16.326;2022-09-16T06:20:56;5.10;;;4.70;;
10565;SDS011;5331;48.148;16.326;2022-09-16T06:23:27;5.28;;;4.70;;
10565;SDS011;5331;48.148;16.326;2022-09-16T06:25:59;6.78;;;4.95;;
10565;SDS011;5331;48.148;16.326;2022-09-16T06:28:27;6.85;;;5.45;;
10565;SDS011;5331;48.148;16.326;2022-09-16T06:31:00;5.50;;;4.97;;
10565;SDS011;5331;48.148;16.326;2022-09-16T06:33:29;5.65;;;5.00;;
10565;SDS011;5331;48.148;16.326;2022-09-16T06:35:56;4.88;;;4.38;;
10565;SDS011;5331;48.148;16.326;2022-09-16T06:38:23;4.63;;;4.20;;
10565;SDS011;5331;48.148;16.326;2022-09-16T06:40:50;5.80;;;4.85;;
10565;SDS011;5331;48.148;16.326;2022-09-16T06:43:19;5.13;;;4.63;;
10565;SDS011;5331;48.148;16.326;2022-09-16T06:45:46;5.80;;;4.25;;
10565;SDS011;5331;48.148;16.326;2022-09-16T06:48:13;4.80;;;4.03;;
10565;SDS011;5331;48.148;16.326;2022-09-16T06:50:40;9.10;;;7.18;;
10565;SDS011;5331;48.148;16.326;2022-09-16T06:53:07;9.40;;;8.48;;
10565;SDS011;5331;48.148;16.326;2022-09-16T06:55:34;5.00;;;3.67;;
10565;SDS011;5331;48.148;16.326;2022-09-16T06:58:01;4.80;;;3.50;;
10565;SDS011;5331;48.148;16.326;2022-09-16T07:00:29;4.25;;;3.05;;
10565;SDS011;5331;48.148;16.326;2022-09-16T07:02:56;3.90;;;3.10;;
10565;SDS011;5331;48.148;16.326;2022-09-16T07:05:23;6.07;;;5.47;;
10565;SDS011;5331;48.148;16.326;2022-09-16T07:07:50;4.45;;;3.70;;
10565;SDS011;5331;48.148;16.326;2022-09-16T07:10:18;5.50;;;3.60;;
10565;SDS011;5331;48.148;16.326;2022-09-16T07:12:44;3.92;;;3.30;;
10565;SDS011;5331;48.148;16.326;2022-09-16T07:15:11;4.78;;;3.08;;
10565;SDS011;5331;48.148;16.326;2022-09-16T07:17:40;3.22;;;3.03;;
10565;SDS011;5331;48.148;16.326;2022-09-16T07:20:07;5.07;;;3.13;;
10565;SDS011;5331;48.148;16.326;2022-09-16T07:22:35;3.72;;;3.25;;
10565;SDS011;5331;48.148;16.326;2022-09-16T07:25:03;3.00;;;2.80;;
10565;SDS011;5331;48.148;16.326;2022-09-16T07:27:31;4.32;;;3.00;;
10565;SDS011;5331;48.148;16.326;2022-09-16T07:29:58;3.35;;;2.97;;
10565;SDS011;5331;48.148;16.326;2022-09-16T07:32:27;2.95;;;2.70;;
10565;SDS011;5331;48.148;16.326;2022-09-16T07:34:56;2.95;;;2.75;;
10565;SDS011;5331;48.148;16.326;2022-09-16T07:37:23;3.13;;;2.80;;
10565;SDS011;5331;48.148;16.326;2022-09-16T07:39:50;2.90;;;2.70;;
10565;SDS011;5331;48.148;16.326;2022-09-16T07:42:18;2.97;;;2.78;;
10565;SDS011;5331;48.148;16.326;2022-09-16T07:44:45;3.92;;;2.72;;
10565;SDS011;5331;48.148;16.326;2022-09-16T07:47:12;3.53;;;2.88;;
10565;SDS011;5331;48.148;16.326;2022-09-16T07:49:39;3.95;;;2.70;;
10565;SDS011;5331;48.148;16.326;2022-09-16T07:52:08;2.88;;;2.67;;
10565;SDS011;5331;48.148;16.326;2022-09-16T07:54:35;3.05;;;2.75;;
10565;SDS011;5331;48.148;16.326;2022-09-16T07:57:02;3.75;;;2.90;;
10565;SDS011;5331;48.148;16.326;2022-09-16T07:59:32;4.22;;;2.83;;
10565;SDS011;5331;48.148;16.326;2022-09-16T08:01:59;2.67;;;2.47;;
10565;SDS011;5331;48.148;16.326;2022-09-16T08:04:26;3.53;;;3.00;;
10565;SDS011;5331;48.148;16.326;2022-09-16T08:06:54;2.97;;;2.67;;
10565;SDS011;5331;48.148;16.326;2022-09-16T08:09:22;3.08;;;2.88;;
10565;SDS011;5331;48.148;16.326;2022-09-16T08:11:49;5.38;;;4.28;;
10565;SDS011;5331;48.148;16.326;2022-09-16T08:14:16;3.70;;;3.35;;
10565;SDS011;5331;48.148;16.326;2022-09-16T08:16:43;3.95;;;3.50;;
10565;SDS011;5331;48.148;16.326;2022-09-16T08:19:10;3.30;;;3.00;;
10565;SDS011;5331;48.148;16.326;2022-09-16T08:21:38;3.08;;;2.75;;
10565;SDS011;5331;48.148;16.326;2022-09-16T08:24:05;5.20;;;2.90;;
10565;SDS011;5331;48.148;16.326;2022-09-16T08:26:36;4.82;;;3.45;;
10565;SDS011;5331;48.148;16.326;2022-09-16T08:29:05;5.65;;;4.95;;
10565;SDS011;5331;48.148;16.326;2022-09-16T08:31:32;4.05;;;3.17;;
10565;SDS011;5331;48.148;16.326;2022-09-16T08:33:59;4.10;;;3.10;;
10565;SDS011;5331;48.148;16.326;2022-09-16T08:36:26;2.92;;;2.70;;
10565;SDS011;5331;48.148;16.326;2022-09-16T08:38:57;3.22;;;2.95;;
10565;SDS011;5331;48.148;16.326;2022-09-16T08:41:30;3.58;;;2.70;;
10565;SDS011;5331;48.148;16.326;2022-09-16T08:44:19;3.30;;;3.10;;
10565;SDS011;5331;48.148;16.326;2022-09-16T08:46:53;5.85;;;3.78;;
10565;SDS011;5331;48.148;16.326;2022-09-16T08:49:28;3.20;;;2.90;;
10565;SDS011;5331;48.148;16.326;2022-09-16T08:51:59;4.20;;;2.67;;
10565;SDS011;5331;48.148;16.326;2022-09-16T08:54:31;2.90;;;2.70;;
10565;SDS011;5331;48.148;16.326;2022-09-16T08:57:04;3.58;;;3.17;;
10565;SDS011;5331;48.148;16.326;2022-09-16T08:59:38;2.80;;;2.60;;
10565;SDS011;5331;48.148;16.326;2022-09-16T09:02:22;2.78;;;2.58;;
10565;SDS011;5331;48.148;16.326;2022-09-16T09:04:57;4.28;;;3.00;;
10565;SDS011;5331;48.148;16.326;2022-09-16T09:07:26;3.38;;;3.00;;
10565;SDS011;5331;48.148;16.326;2022-09-16T09:10:00;3.50;;;2.90;;
10565;SDS011;5331;48.148;16.326;2022-09-16T09:12:36;3.22;;;2.90;;
10565;SDS011;5331;48.148;16.326;2022-09-16T09:18:00;5.05;;;3.10;;
10565;SDS011;5331;48.148;16.326;2022-09-16T09:20:42;4.72;;;3.08;;
10565;SDS011;5331;48.148;16.326;2022-09-16T09:23:19;3.60;;;3.20;;
10565;SDS011;5331;48.148;16.326;2022-09-16T09:26:12;3.20;;;3.00;;
10565;SDS011;5331;48.148;16.326;2022-09-16T09:28:54;4.00;;;3.60;;
10565;SDS011;5331;48.148;16.326;2022-09-16T09:31:39;4.53;;;3.10;;
10565;SDS011;5331;48.148;16.326;2022-09-16T09:34:16;4.15;;;3.22;;
10565;SDS011;5331;48.148;16.326;2022-09-16T09:37:02;7.15;;;6.00;;
10565;SDS011;5331;48.148;16.326;2022-09-16T09:39:45;3.75;;;3.45;;
10565;SDS011;5331;48.148;16.326;2022-09-16T09:42:23;4.18;;;3.67;;
10565;SDS011;5331;48.148;16.326;2022-09-16T09:44:59;3.92;;;3.55;;
10565;SDS011;5331;48.148;16.326;2022-09-16T09:47:31;4.07;;;3.63;;
10565;SDS011;5331;48.148;16.326;2022-09-16T09:50:02;4.07;;;3.58;;
10565;SDS011;5331;48.148;16.326;2022-09-16T09:52:42;4.15;;;3.53;;
10565;SDS011;5331;48.148;16.326;2022-09-16T09:55:15;11.98;;;9.98;;
10565;SDS011;5331;48.148;16.326;2022-09-16T09:57:51;4.38;;;3.97;;
10565;SDS011;5331;48.148;16.326;2022-09-16T10:00:26;4.40;;;3.28;;
10565;SDS011;5331;48.148;16.326;2022-09-16T10:03:01;4.57;;;3.38;;
10565;SDS011;5331;48.148;16.326;2022-09-16T10:05:32;5.50;;;3.95;;
10565;SDS011;5331;48.148;16.326;2022-09-16T10:08:01;4.22;;;3.70;;
10565;SDS011;5331;48.148;16.326;2022-09-16T10:10:31;4.78;;;4.38;;
10565;SDS011;5331;48.148;16.326;2022-09-16T10:13:06;4.65;;;4.25;;
10565;SDS011;5331;48.148;16.326;2022-09-16T10:15:35;4.70;;;3.80;;
10565;SDS011;5331;48.148;16.326;2022-09-16T10:18:07;4.05;;;3.75;;
10565;SDS011;5331;48.148;16.326;2022-09-16T10:20:38;4.55;;;3.80;;
10565;SDS011;5331;48.148;16.326;2022-09-16T10:23:09;4.65;;;4.20;;
10565;SDS011;5331;48.148;16.326;2022-09-16T10:25:38;5.38;;;3.88;;
10565;SDS011;5331;48.148;16.326;2022-09-16T10:28:17;4.25;;;3.92;;
10565;SDS011;5331;48.148;16.326;2022-09-16T10:30:47;5.55;;;4.38;;
10565;SDS011;5331;48.148;16.326;2022-09-16T10:33:19;5.10;;;4.00;;
10565;SDS011;5331;48.148;16.326;2022-09-16T10:35:50;5.30;;;3.92;;
10565;SDS011;5331;48.148;16.326;2022-09-16T10:38:22;5.18;;;4.20;;
10565;SDS011;5331;48.148;16.326;2022-09-16T10:40:53;6.55;;;4.35;;
10565;SDS011;5331;48.148;16.326;2022-09-16T10:43:25;5.60;;;4.75;;
10565;SDS011;5331;48.148;16.326;2022-09-16T10:45:57;4.88;;;4.47;;
10565;SDS011;5331;48.148;16.326;2022-09-16T10:48:25;5.20;;;4.80;;
10565;SDS011;5331;48.148;16.326;2022-09-16T10:50:54;4.90;;;4.50;;
10565;SDS011;5331;48.148;16.326;2022-09-16T10:53:25;4.78;;;4.22;;
10565;SDS011;5331;48.148;16.326;2022-09-16T10:55:56;4.97;;;4.47;;
10565;SDS011;5331;48.148;16.326;2022-09-16T10:58:24;5.88;;;5.28;;
10565;SDS011;5331;48.148;16.326;2022-09-16T11:00:55;7.53;;;4.75;;
10565;SDS011;5331;48.148;16.326;2022-09-16T11:04:06;6.07;;;4.97;;
10565;SDS011;5331;48.148;16.326;2022-09-16T11:06:49;5.82;;;4.82;;
10565;SDS011;5331;48.148;16.326;2022-09-16T11:09:24;4.88;;;4.47;;
10565;SDS011;5331;48.148;16.326;2022-09-16T11:12:10;5.35;;;4.85;;
10565;SDS011;5331;48.148;16.326;2022-09-16T11:14:57;5.30;;;4.78;;
10565;SDS011;5331;48.148;16.326;2022-09-16T11:17:37;5.00;;;4.50;;
10565;SDS011;5331;48.148;16.326;2022-09-16T11:23:16;4.60;;;4.20;;
10565;SDS011;5331;48.148;16.326;2022-09-16T11:25:53;4.88;;;4.47;;
10565;SDS011;5331;48.148;16.326;2022-09-16T11:28:44;4.50;;;4.10;;
10565;SDS011;5331;48.148;16.326;2022-09-16T11:31:28;4.55;;;4.15;;
10565;SDS011;5331;48.148;16.326;2022-09-16T11:37:18;5.13;;;4.32;;
10565;SDS011;5331;48.148;16.326;2022-09-16T11:39:52;5.20;;;4.53;;
10565;SDS011;5331;48.148;16.326;2022-09-16T11:42:29;6.00;;;5.40;;
10565;SDS011;5331;48.148;16.326;2022-09-16T11:45:02;5.97;;;5.38;;
10565;SDS011;5331;48.148;16.326;2022-09-16T11:47:46;4.85;;;4.25;;
10565;SDS011;5331;48.148;16.326;2022-09-16T11:50:25;4.55;;;4.07;;
10565;SDS011;5331;48.148;16.326;2022-09-16T11:53:06;4.20;;;3.80;;
10565;SDS011;5331;48.148;16.326;2022-09-16T11:55:50;3.75;;;3.45;;
10565;SDS011;5331;48.148;16.326;2022-09-16T11:58:23;4.95;;;4.32;;
10565;SDS011;5331;48.148;16.326;2022-09-16T12:00:57;4.70;;;4.07;;
10565;SDS011;5331;48.148;16.326;2022-09-16T12:03:29;4.05;;;3.70;;
10565;SDS011;5331;48.148;16.326;2022-09-16T12:06:02;5.20;;;3.42;;
10565;SDS011;5331;48.148;16.326;2022-09-16T12:08:37;4.20;;;3.80;;
10565;SDS011;5331;48.148;16.326;2022-09-16T12:11:16;3.83;;;3.53;;
10565;SDS011;5331;48.148;16.326;2022-09-16T12:13:48;4.03;;;3.53;;
10565;SDS011;5331;48.148;16.326;2022-09-16T12:16:19;3.95;;;3.60;;
10565;SDS011;5331;48.148;16.326;2022-09-16T12:18:54;3.90;;;3.53;;
10565;SDS011;5331;48.148;16.326;2022-09-16T12:21:25;4.65;;;3.78;;
10565;SDS011;5331;48.148;16.326;2022-09-16T12:23:58;4.30;;;3.10;;
10565;SDS011;5331;48.148;16.326;2022-09-16T12:26:30;3.80;;;3.50;;
10565;SDS011;5331;48.148;16.326;2022-09-16T12:29:02;6.95;;;3.60;;
10565;SDS011;5331;48.148;16.326;2022-09-16T12:31:36;4.63;;;3.53;;
10565;SDS011;5331;48.148;16.326;2022-09-16T12:34:09;3.70;;;3.40;;
10565;SDS011;5331;48.148;16.326;2022-09-16T12:36:40;3.92;;;3.60;;
10565;SDS011;5331;48.148;16.326;2022-09-16T12:39:13;3.72;;;3.50;;
10565;SDS011;5331;48.148;16.326;2022-09-16T12:41:54;3.92;;;3.63;;
10565;SDS011;5331;48.148;16.326;2022-09-16T12:44:49;3.45;;;3.25;;
10565;SDS011;5331;48.148;16.326;2022-09-16T12:50:46;4.80;;;4.10;;
10565;SDS011;5331;48.148;16.326;2022-09-16T12:56:36;3.80;;;3.60;;
10565;SDS011;5331;48.148;16.326;2022-09-16T12:59:17;4.57;;;4.00;;
10565;SDS011;5331;48.148;16.326;2022-09-16T13:02:02;4.80;;;4.10;;
10565;SDS011;5331;48.148;16.326;2022-09-16T13:04:36;3.80;;;3.50;;
10565;SDS011;5331;48.148;16.326;2022-09-16T13:07:05;4.18;;;3.78;;
10565;SDS011;5331;48.148;16.326;2022-09-16T13:09:33;4.43;;;3.72;;
10565;SDS011;5331;48.148;16.326;2022-09-16T13:12:06;3.72;;;3.50;;
10565;SDS011;5331;48.148;16.326;2022-09-16T13:14:45;4.82;;;4.40;;
10565;SDS011;5331;48.148;16.326;2022-09-16T13:17:14;4.32;;;3.92;;
10565;SDS011;5331;48.148;16.326;2022-09-16T13:19:53;4.07;;;3.67;;
10565;SDS011;5331;48.148;16.326;2022-09-16T13:22:23;3.92;;;3.55;;
10565;SDS011;5331;48.148;16.326;2022-09-16T13:24:57;4.00;;;3.70;;
10565;SDS011;5331;48.148;16.326;2022-09-16T13:27:32;4.93;;;3.70;;
10565;SDS011;5331;48.148;16.326;2022-09-16T13:30:05;4.22;;;3.83;;
10565;SDS011;5331;48.148;16.326;2022-09-16T13:32:43;4.50;;;4.10;;
10565;SDS011;5331;48.148;16.326;2022-09-16T13:35:22;4.97;;;4.25;;
10565;SDS011;5331;48.148;16.326;2022-09-16T13:38:10;3.72;;;3.35;;
10565;SDS011;5331;48.148;16.326;2022-09-16T13:40:53;3.70;;;3.40;;
10565;SDS011;5331;48.148;16.326;2022-09-16T13:43:31;4.50;;;3.70;;
10565;SDS011;5331;48.148;16.326;2022-09-16T13:46:01;3.83;;;3.53;;
10565;SDS011;5331;48.148;16.326;2022-09-16T13:48:54;4.55;;;3.80;;
10565;SDS011;5331;48.148;16.326;2022-09-16T13:51:29;3.80;;;3.50;;
10565;SDS011;5331;48.148;16.326;2022-09-16T13:53:58;3.90;;;3.50;;
10565;SDS011;5331;48.148;16.326;2022-09-16T13:56:40;3.70;;;3.40;;
10565;SDS011;5331;48.148;16.326;2022-09-16T13:59:19;3.83;;;3.50;;
10565;SDS011;5331;48.148;16.326;2022-09-16T14:02:02;4.63;;;3.50;;
10565;SDS011;5331;48.148;16.326;2022-09-16T14:04:42;3.83;;;3.53;;
10565;SDS011;5331;48.148;16.326;2022-09-16T14:07:25;5.50;;;3.38;;
10565;SDS011;5331;48.148;16.326;2022-09-16T14:10:02;3.95;;;3.65;;
10565;SDS011;5331;48.148;16.326;2022-09-16T14:12:38;4.47;;;4.10;;
10565;SDS011;5331;48.148;16.326;2022-09-16T14:15:12;4.07;;;3.67;;
10565;SDS011;5331;48.148;16.326;2022-09-16T14:17:41;3.80;;;3.50;;
10565;SDS011;5331;48.148;16.326;2022-09-16T14:20:12;3.92;;;3.58;;
10565;SDS011;5331;48.148;16.326;2022-09-16T14:22:41;3.90;;;3.60;;
10565;SDS011;5331;48.148;16.326;2022-09-16T14:25:25;3.95;;;3.65;;
10565;SDS011;5331;48.148;16.326;2022-09-16T14:28:06;3.47;;;3.28;;
10565;SDS011;5331;48.148;16.326;2022-09-16T14:30:35;4.32;;;3.90;;
10565;SDS011;5331;48.148;16.326;2022-09-16T14:33:02;3.67;;;3.38;;
10565;SDS011;5331;48.148;16.326;2022-09-16T14:35:32;3.90;;;3.60;;
10565;SDS011;5331;48.148;16.326;2022-09-16T14:38:00;3.42;;;3.22;;
10565;SDS011;5331;48.148;16.326;2022-09-16T14:40:29;4.10;;;3.80;;
10565;SDS011;5331;48.148;16.326;2022-09-16T14:42:57;4.10;;;3.80;;
10565;SDS011;5331;48.148;16.326;2022-09-16T14:45:28;4.25;;;3.85;;
10565;SDS011;5331;48.148;16.326;2022-09-16T14:47:59;4.70;;;3.70;;
10565;SDS011;5331;48.148;16.326;2022-09-16T14:50:31;4.53;;;3.70;;
10565;SDS011;5331;48.148;16.326;2022-09-16T14:53:03;3.88;;;3.58;;
10565;SDS011;5331;48.148;16.326;2022-09-16T14:55:33;3.88;;;3.55;;
10565;SDS011;5331;48.148;16.326;2022-09-16T14:58:04;3.70;;;3.40;;
10565;SDS011;5331;48.148;16.326;2022-09-16T15:00:35;3.92;;;3.55;;
10565;SDS011;5331;48.148;16.326;2022-09-16T15:03:13;3.83;;;3.15;;
10565;SDS011;5331;48.148;16.326;2022-09-16T15:05:44;4.07;;;3.78;;
10565;SDS011;5331;48.148;16.326;2022-09-16T15:08:15;3.97;;;3.65;;
10565;SDS011;5331;48.148;16.326;2022-09-16T15:10:45;4.75;;;3.67;;
10565;SDS011;5331;48.148;16.326;2022-09-16T15:13:14;4.07;;;3.78;;
10565;SDS011;5331;48.148;16.326;2022-09-16T15:15:44;3.70;;;3.50;;
10565;SDS011;5331;48.148;16.326;2022-09-16T15:18:18;3.67;;;3.38;;
10565;SDS011;5331;48.148;16.326;2022-09-16T15:20:49;3.78;;;3.47;;
10565;SDS011;5331;48.148;16.326;2022-09-16T15:23:20;4.05;;;3.78;;
10565;SDS011;5331;48.148;16.326;2022-09-16T15:25:51;4.80;;;3.67;;
10565;SDS011;5331;48.148;16.326;2022-09-16T15:28:21;4.22;;;3.90;;
10565;SDS011;5331;48.148;16.326;2022-09-16T15:30:49;4.45;;;4.05;;
10565;SDS011;5331;48.148;16.326;2022-09-16T15:33:24;4.10;;;3.80;;
10565;SDS011;5331;48.148;16.326;2022-09-16T15:35:52;4.00;;;3.70;;
10565;SDS011;5331;48.148;16.326;2022-09-16T15:38:21;3.70;;;3.40;;
10565;SDS011;5331;48.148;16.326;2022-09-16T15:40:58;4.65;;;3.50;;